createdAt,value
2023-05-12T00:00:39.042Z,43.37
2023-05-12T00:01:39.071Z,43.38
2023-05-12T00:02:39.174Z,43.37
2023-05-12T00:03:39.277Z,43.35
2023-05-12T00:04:39.232Z,43.34
2023-05-12T00:05:39.248Z,43.36
2023-05-12T00:06:39.305Z,43.35
2023-05-12T00:07:39.363Z,43.34
2023-05-12T00:08:39.419Z,43.35
2023-05-12T00:09:39.464Z,43.34
2023-05-12T00:10:39.565Z,43.36
2023-05-12T00:11:39.608Z,43.36
2023-05-12T00:12:39.676Z,43.36
2023-05-12T00:13:39.797Z,43.34
2023-05-12T00:14:39.768Z,43.33
2023-05-12T00:15:39.835Z,43.34
2023-05-12T00:16:39.919Z,43.32
2023-05-12T00:17:40.005Z,43.32
2023-05-12T00:18:40.032Z,43.33
2023-05-12T00:19:40.025Z,43.34
2023-05-12T00:20:40.061Z,43.34
2023-05-12T00:21:40.114Z,43.32
2023-05-12T00:22:40.161Z,43.32
2023-05-12T00:23:40.237Z,43.32
2023-05-12T00:24:40.238Z,43.32
2023-05-12T00:25:40.300Z,43.31
2023-05-12T00:26:40.340Z,43.30
2023-05-12T00:27:40.374Z,43.36
2023-05-12T00:28:40.443Z,43.31
2023-05-12T00:29:40.486Z,43.32
2023-05-12T00:30:40.544Z,43.34
2023-05-12T00:31:40.561Z,43.31
2023-05-12T00:32:40.622Z,43.29
2023-05-12T00:33:40.620Z,43.32
2023-05-12T00:34:40.652Z,43.32
2023-05-12T00:35:40.690Z,43.27
2023-05-12T00:36:40.736Z,43.28
2023-05-12T00:37:40.759Z,43.30
2023-05-12T00:38:40.827Z,43.31
2023-05-12T00:39:40.837Z,43.29
2023-05-12T00:40:40.880Z,43.27
2023-05-12T00:41:40.884Z,43.26
2023-05-12T00:42:40.911Z,43.29
2023-05-12T00:43:40.914Z,43.27
2023-05-12T00:44:40.939Z,43.28
2023-05-12T00:45:40.998Z,43.28
2023-05-12T00:46:40.993Z,43.26
2023-05-12T00:47:41.064Z,43.29
2023-05-12T00:48:41.049Z,43.29
2023-05-12T00:49:41.085Z,43.26
2023-05-12T00:50:41.128Z,43.29
2023-05-12T00:51:41.134Z,43.25
2023-05-12T00:52:41.193Z,43.28
2023-05-12T00:53:49.220Z,43.28
2023-05-12T00:54:42.191Z,43.29
2023-05-12T00:55:41.203Z,43.29
2023-05-12T00:56:41.205Z,43.28
2023-05-12T00:57:41.172Z,43.27
2023-05-12T00:58:41.164Z,43.27
2023-05-12T00:59:41.167Z,43.25
2023-05-12T01:00:41.162Z,43.25
2023-05-12T01:01:41.249Z,43.27
2023-05-12T01:02:41.331Z,43.25
2023-05-12T01:03:41.228Z,43.25
2023-05-12T01:04:41.225Z,43.25
2023-05-12T01:05:41.290Z,43.26
2023-05-12T01:06:41.310Z,43.26
2023-05-12T01:07:41.351Z,43.27
2023-05-12T01:08:41.398Z,43.25
2023-05-12T01:09:41.417Z,43.27
2023-05-12T01:10:41.469Z,43.25
2023-05-12T01:11:41.465Z,43.24
2023-05-12T01:12:41.509Z,43.26
2023-05-12T01:13:41.529Z,43.25
2023-05-12T01:14:41.543Z,43.25
2023-05-12T01:15:41.602Z,43.24
2023-05-12T01:16:41.609Z,43.25
2023-05-12T01:17:41.718Z,43.24
2023-05-12T01:18:41.709Z,43.23
2023-05-12T01:19:41.706Z,43.23
2023-05-12T01:20:41.712Z,43.23
2023-05-12T01:21:41.745Z,43.23
2023-05-12T01:22:41.753Z,43.22
2023-05-12T01:23:41.785Z,43.21
2023-05-12T01:24:41.823Z,43.23
2023-05-12T01:25:41.876Z,43.23
2023-05-12T01:26:41.888Z,43.24
2023-05-12T01:27:41.875Z,43.20
2023-05-12T01:28:41.898Z,43.23
2023-05-12T01:29:41.931Z,43.21
2023-05-12T01:30:41.980Z,43.22
2023-05-12T01:31:42.063Z,43.21
2023-05-12T01:32:42.093Z,43.20
2023-05-12T01:33:42.092Z,43.21
2023-05-12T01:34:42.144Z,43.20
2023-05-12T01:35:42.186Z,43.18
2023-05-12T01:36:42.180Z,43.19
2023-05-12T01:37:42.216Z,43.22
2023-05-12T01:38:42.254Z,43.20
2023-05-12T01:39:42.324Z,43.21
2023-05-12T01:40:42.321Z,43.20
2023-05-12T01:41:42.352Z,43.23
2023-05-12T01:42:42.381Z,43.20
2023-05-12T01:43:42.409Z,43.21
2023-05-12T01:44:42.451Z,43.19
2023-05-12T01:45:42.432Z,43.22
2023-05-12T01:46:42.509Z,43.18
2023-05-12T01:47:42.491Z,43.21
2023-05-12T01:48:42.437Z,43.19
2023-05-12T01:49:42.456Z,43.21
2023-05-12T01:50:42.544Z,43.21
2023-05-12T01:51:42.494Z,43.20
2023-05-12T01:52:42.505Z,43.20
2023-05-12T01:53:42.510Z,43.21
2023-05-12T01:54:42.515Z,43.19
2023-05-12T01:55:42.527Z,43.21
2023-05-12T01:56:42.539Z,43.23
2023-05-12T01:57:42.562Z,43.20
2023-05-12T01:58:42.562Z,43.19
2023-05-12T01:59:42.551Z,43.19
2023-05-12T02:00:42.558Z,43.18
2023-05-12T02:01:42.617Z,43.18
2023-05-12T02:02:43.335Z,43.19
2023-05-12T02:03:42.773Z,43.18
2023-05-12T02:04:42.556Z,43.19
2023-05-12T02:05:42.600Z,43.16
2023-05-12T02:06:42.547Z,43.16
2023-05-12T02:07:42.538Z,43.17
2023-05-12T02:08:42.530Z,43.19
2023-05-12T02:09:42.528Z,43.19
2023-05-12T02:10:42.547Z,43.18
2023-05-12T02:11:42.572Z,43.22
2023-05-12T02:12:42.530Z,43.19
2023-05-12T02:13:42.544Z,43.18
2023-05-12T02:14:42.534Z,43.19
2023-05-12T02:15:42.585Z,43.18
2023-05-12T02:16:42.651Z,43.19
2023-05-12T02:17:42.542Z,43.18
2023-05-12T02:18:42.555Z,43.19
2023-05-12T02:19:42.506Z,43.18
2023-05-12T02:20:42.505Z,43.20
2023-05-12T02:21:42.493Z,43.14
2023-05-12T02:22:42.505Z,43.18
2023-05-12T02:23:42.481Z,43.17
2023-05-12T02:24:42.473Z,43.18
2023-05-12T02:25:42.462Z,43.16
2023-05-12T02:26:42.462Z,43.17
2023-05-12T02:27:42.499Z,43.16
2023-05-12T02:28:42.460Z,43.17
2023-05-12T02:29:42.520Z,43.21
2023-05-12T02:30:42.476Z,43.20
2023-05-12T02:31:42.500Z,43.19
2023-05-12T02:32:42.532Z,43.18
2023-05-12T02:33:42.490Z,43.18
2023-05-12T02:34:42.474Z,43.19
2023-05-12T02:35:42.446Z,43.19
2023-05-12T02:36:42.509Z,43.15
2023-05-12T02:37:42.444Z,43.18
2023-05-12T02:38:42.450Z,43.19
2023-05-12T02:39:42.457Z,43.20
2023-05-12T02:40:42.446Z,43.18
2023-05-12T02:41:42.458Z,43.17
2023-05-12T02:42:42.445Z,43.18
2023-05-12T02:43:42.438Z,43.19
2023-05-12T02:44:42.443Z,43.19
2023-05-12T02:45:42.438Z,43.16
2023-05-12T02:46:42.443Z,43.19
2023-05-12T02:47:42.485Z,43.17
2023-05-12T02:48:42.415Z,43.17
2023-05-12T02:49:42.423Z,43.18
2023-05-12T02:50:42.413Z,43.18
2023-05-12T02:51:42.407Z,43.18
2023-05-12T02:52:42.417Z,43.16
2023-05-12T02:53:42.404Z,43.17
2023-05-12T02:54:42.407Z,43.17
2023-05-12T02:55:42.398Z,43.17
2023-05-12T02:56:42.449Z,43.17
2023-05-12T02:57:42.396Z,43.16
2023-05-12T02:58:42.409Z,43.15
2023-05-12T02:59:42.392Z,43.15
2023-05-12T03:00:42.375Z,43.15
2023-05-12T03:01:42.443Z,43.16
2023-05-12T03:02:42.452Z,43.15
2023-05-12T03:03:42.528Z,43.15
2023-05-12T03:04:42.397Z,43.17
2023-05-12T03:05:42.378Z,43.16
2023-05-12T03:06:42.411Z,43.15
2023-05-12T03:07:42.378Z,43.16
2023-05-12T03:08:42.407Z,43.16
2023-05-12T03:09:42.373Z,43.15
2023-05-12T03:10:42.376Z,43.16
2023-05-12T03:11:42.390Z,43.16
2023-05-12T03:12:42.369Z,43.14
2023-05-12T03:13:42.401Z,43.15
2023-05-12T03:14:42.386Z,43.13
2023-05-12T03:15:42.386Z,43.15
2023-05-12T03:16:42.440Z,43.14
2023-05-12T03:17:42.408Z,43.10
2023-05-12T03:18:42.406Z,43.17
2023-05-12T03:19:42.363Z,43.15
2023-05-12T03:20:42.371Z,43.16
2023-05-12T03:21:42.374Z,43.13
2023-05-12T03:22:42.351Z,43.12
2023-05-12T03:23:42.363Z,43.11
2023-05-12T03:24:42.378Z,43.12
2023-05-12T03:25:42.353Z,43.14
2023-05-12T03:26:42.389Z,43.15
2023-05-12T03:27:42.353Z,43.12
2023-05-12T03:28:42.359Z,43.13
2023-05-12T03:29:42.353Z,43.13
2023-05-12T03:30:42.359Z,43.11
2023-05-12T03:31:42.393Z,43.12
2023-05-12T03:32:42.385Z,43.12
2023-05-12T03:33:42.359Z,43.10
2023-05-12T03:34:42.352Z,43.09
2023-05-12T03:35:42.355Z,43.10
2023-05-12T03:36:42.350Z,43.11
2023-05-12T03:37:42.358Z,43.12
2023-05-12T03:38:42.346Z,43.10
2023-05-12T03:39:42.353Z,43.11
2023-05-12T03:40:42.336Z,43.12
2023-05-12T03:41:42.366Z,43.10
2023-05-12T03:42:42.334Z,43.11
2023-05-12T03:43:42.327Z,43.11
2023-05-12T03:44:42.330Z,43.13
2023-05-12T03:45:42.331Z,43.11
2023-05-12T03:46:42.449Z,43.09
2023-05-12T03:47:42.541Z,43.08
2023-05-12T03:48:42.347Z,43.10
2023-05-12T03:49:42.309Z,43.11
2023-05-12T03:50:42.318Z,43.09
2023-05-12T03:51:42.329Z,43.11
2023-05-12T03:52:42.320Z,43.10
2023-05-12T03:53:42.384Z,43.10
2023-05-12T03:54:42.330Z,43.09
2023-05-12T03:55:42.332Z,43.10
2023-05-12T03:56:42.315Z,43.11
2023-05-12T03:57:42.317Z,43.10
2023-05-12T03:58:42.320Z,43.10
2023-05-12T03:59:42.316Z,43.10
2023-05-12T04:00:42.304Z,43.07
2023-05-12T04:01:42.327Z,43.08
2023-05-12T04:02:42.354Z,43.08
2023-05-12T04:03:42.426Z,43.09
2023-05-12T04:04:42.300Z,43.09
2023-05-12T04:05:42.300Z,43.09
2023-05-12T04:06:42.310Z,43.08
2023-05-12T04:07:42.305Z,43.11
2023-05-12T04:08:42.347Z,43.07
2023-05-12T04:09:42.275Z,43.08
2023-05-12T04:10:42.280Z,43.08
2023-05-12T04:11:42.285Z,43.04
2023-05-12T04:12:42.274Z,43.04
2023-05-12T04:13:42.273Z,43.04
2023-05-12T04:14:43.406Z,43.04
2023-05-12T04:15:42.273Z,43.03
2023-05-12T04:16:42.312Z,43.07
2023-05-12T04:17:42.316Z,43.07
2023-05-12T04:18:42.291Z,43.04
2023-05-12T04:19:42.281Z,43.04
2023-05-12T04:20:42.285Z,43.06
2023-05-12T04:21:42.296Z,43.04
2023-05-12T04:22:42.311Z,43.03
2023-05-12T04:23:42.285Z,43.03
2023-05-12T04:24:42.361Z,43.04
2023-05-12T04:25:42.313Z,43.04
2023-05-12T04:26:42.330Z,43.06
2023-05-12T04:27:42.325Z,43.07
2023-05-12T04:28:42.324Z,43.03
2023-05-12T04:29:42.337Z,43.04
2023-05-12T04:30:42.332Z,43.03
2023-05-12T04:31:42.390Z,43.02
2023-05-12T04:32:42.368Z,43.06
2023-05-12T04:33:42.336Z,43.07
2023-05-12T04:34:42.363Z,43.02
2023-05-12T04:35:42.328Z,43.04
2023-05-12T04:36:42.337Z,43.04
2023-05-12T04:37:42.341Z,43.04
2023-05-12T04:38:42.445Z,43.04
2023-05-12T04:39:42.374Z,43.03
2023-05-12T04:40:42.349Z,43.01
2023-05-12T04:41:42.349Z,43.02
2023-05-12T04:42:42.365Z,43.02
2023-05-12T04:44:42.357Z,43.04
2023-05-12T04:45:42.380Z,43.03
2023-05-12T04:46:42.445Z,43.04
2023-05-12T04:47:42.387Z,43.02
2023-05-12T04:48:42.327Z,43.03
2023-05-12T04:49:42.329Z,43.03
2023-05-12T04:50:42.328Z,43.00
2023-05-12T04:51:42.373Z,42.98
2023-05-12T04:52:42.306Z,43.02
2023-05-12T04:53:42.298Z,43.01
2023-05-12T04:54:42.296Z,43.01
2023-05-12T04:55:42.291Z,42.97
2023-05-12T04:56:42.271Z,43.00
2023-05-12T04:57:42.278Z,43.01
2023-05-12T04:58:42.257Z,43.02
2023-05-12T04:59:42.273Z,42.99
2023-05-12T05:00:42.247Z,43.00
2023-05-12T05:01:42.284Z,42.98
2023-05-12T05:02:42.330Z,43.00
2023-05-12T05:03:42.342Z,42.99
2023-05-12T05:04:42.212Z,42.99
2023-05-12T05:05:42.211Z,42.98
2023-05-12T05:06:42.204Z,42.96
2023-05-12T05:07:42.187Z,42.96
2023-05-12T05:08:42.189Z,42.97
2023-05-12T05:09:42.185Z,42.96
2023-05-12T05:10:42.172Z,42.93
2023-05-12T05:11:42.162Z,42.96
2023-05-12T05:12:42.191Z,42.92
2023-05-12T05:13:42.159Z,42.93
2023-05-12T05:14:42.149Z,42.90
2023-05-12T05:15:42.149Z,42.90
2023-05-12T05:16:42.142Z,42.91
2023-05-12T05:17:42.174Z,42.91
2023-05-12T05:18:42.143Z,42.88
2023-05-12T05:19:55.211Z,42.87
2023-05-12T05:20:45.461Z,42.89
2023-05-12T05:21:42.130Z,42.87
2023-05-12T05:22:42.189Z,42.88
2023-05-12T05:23:42.263Z,42.89
2023-05-12T05:24:42.307Z,42.88
2023-05-12T05:25:42.348Z,42.88
2023-05-12T05:26:42.355Z,42.89
2023-05-12T05:27:42.353Z,42.89
2023-05-12T05:28:42.357Z,42.91
2023-05-12T05:29:42.354Z,42.89
2023-05-12T05:30:42.450Z,42.91
2023-05-12T05:31:42.380Z,42.88
2023-05-12T05:32:42.856Z,42.88
2023-05-12T05:33:42.327Z,42.82
2023-05-12T05:34:42.434Z,42.85
2023-05-12T05:35:42.324Z,42.92
2023-05-12T05:36:42.325Z,43.12
2023-05-12T05:37:42.329Z,42.94
2023-05-12T05:38:42.330Z,42.94
2023-05-12T05:39:42.310Z,43.13
2023-05-12T05:40:52.760Z,43.15
2023-05-12T05:41:43.305Z,43.11
2023-05-12T05:42:42.317Z,43.23
2023-05-12T05:43:42.283Z,43.26
2023-05-12T05:44:42.307Z,43.39
2023-05-12T05:45:42.281Z,43.72
2023-05-12T05:46:42.349Z,43.84
2023-05-12T05:47:42.317Z,43.92
2023-05-12T05:48:42.253Z,43.91
2023-05-12T05:49:42.301Z,43.90
2023-05-12T05:50:42.361Z,44.03
2023-05-12T05:51:42.395Z,43.99
2023-05-12T05:52:42.473Z,44.03
2023-05-12T05:53:42.465Z,44.16
2023-05-12T05:54:42.514Z,44.10
2023-05-12T05:55:42.548Z,44.21
2023-05-12T05:56:42.561Z,44.33
2023-05-12T05:57:42.595Z,44.40
2023-05-12T05:58:42.603Z,44.31
2023-05-12T05:59:42.627Z,44.33
2023-05-12T06:00:42.652Z,44.28
2023-05-12T06:01:42.711Z,44.26
2023-05-12T06:02:42.835Z,43.68
2023-05-12T06:03:43.821Z,44.10
2023-05-12T06:04:42.648Z,44.14
2023-05-12T06:05:42.649Z,43.99
2023-05-12T06:06:42.654Z,44.14
2023-05-12T06:07:42.640Z,44.00
2023-05-12T06:08:42.630Z,43.97
2023-05-12T06:09:42.625Z,44.12
2023-05-12T06:10:42.598Z,44.12
2023-05-12T06:11:42.593Z,44.15
2023-05-12T06:12:42.831Z,44.23
2023-05-12T06:13:42.573Z,44.37
2023-05-12T06:14:42.722Z,44.27
2023-05-12T06:15:42.590Z,44.16
2023-05-12T06:16:42.576Z,44.26
2023-05-12T06:17:42.596Z,44.22
2023-05-12T06:18:42.605Z,43.95
2023-05-12T06:19:42.539Z,43.99
2023-05-12T06:20:42.535Z,44.00
2023-05-12T06:21:42.517Z,44.12
2023-05-12T06:22:42.550Z,44.06
2023-05-12T06:23:42.546Z,43.99
2023-05-12T06:24:42.604Z,44.01
2023-05-12T06:25:42.649Z,44.00
2023-05-12T06:26:42.741Z,43.91
2023-05-12T06:27:42.787Z,43.87
2023-05-12T06:28:42.863Z,43.93
2023-05-12T06:29:42.915Z,43.88
2023-05-12T06:30:42.972Z,43.93
2023-05-12T06:31:43.074Z,43.90
2023-05-12T06:32:43.189Z,43.81
2023-05-12T06:33:43.159Z,43.56
2023-05-12T06:34:43.225Z,43.64
2023-05-12T06:35:43.286Z,43.72
2023-05-12T06:36:43.344Z,43.48
2023-05-12T06:37:43.407Z,43.47
2023-05-12T06:38:43.480Z,42.55
2023-05-12T06:39:43.534Z,40.86
2023-05-12T06:40:43.545Z,39.44
2023-05-12T06:41:43.523Z,38.56
2023-05-12T06:42:43.566Z,37.91
2023-05-12T06:43:43.602Z,37.85
2023-05-12T06:44:43.660Z,37.88
2023-05-12T06:45:43.713Z,37.69
2023-05-12T06:46:43.814Z,37.51
2023-05-12T06:47:43.796Z,37.14
2023-05-12T06:48:43.742Z,36.99
2023-05-12T06:49:43.768Z,37.06
2023-05-12T06:50:43.805Z,37.02
2023-05-12T06:51:43.878Z,37.03
2023-05-12T06:52:43.897Z,37.06
2023-05-12T06:53:43.951Z,36.98
2023-05-12T06:54:43.967Z,36.93
2023-05-12T06:55:44.036Z,36.79
2023-05-12T06:56:44.100Z,36.72
2023-05-12T06:57:44.163Z,36.70
2023-05-12T06:58:44.203Z,36.78
2023-05-12T06:59:44.274Z,36.84
2023-05-12T07:00:44.307Z,36.85
2023-05-12T07:01:44.464Z,36.76
2023-05-12T07:02:44.471Z,36.83
2023-05-12T07:03:44.519Z,36.81
2023-05-12T07:04:44.564Z,36.84
2023-05-12T07:05:44.708Z,36.89
2023-05-12T07:06:44.663Z,36.88
2023-05-12T07:07:44.698Z,36.76
2023-05-12T07:08:44.723Z,36.91
2023-05-12T07:09:44.743Z,36.87
2023-05-12T07:10:44.766Z,36.90
2023-05-12T07:11:44.766Z,37.00
2023-05-12T07:12:44.765Z,36.72
2023-05-12T07:13:44.786Z,36.78
2023-05-12T07:14:44.770Z,36.88
2023-05-12T07:15:44.793Z,36.85
2023-05-12T07:16:44.770Z,36.86
2023-05-12T07:17:44.786Z,36.81
2023-05-12T07:18:44.807Z,36.79
2023-05-12T07:19:44.795Z,36.59
2023-05-12T07:20:44.835Z,36.53
2023-05-12T07:21:44.868Z,36.50
2023-05-12T07:22:44.869Z,36.37
2023-05-12T07:23:44.830Z,36.43
2023-05-12T07:24:44.858Z,36.34
2023-05-12T07:25:44.909Z,36.24
2023-05-12T07:26:44.861Z,36.45
2023-05-12T07:27:44.860Z,36.52
2023-05-12T07:28:44.870Z,36.51
2023-05-12T07:29:44.866Z,36.53
2023-05-12T07:30:44.874Z,36.47
2023-05-12T07:31:45.030Z,36.47
2023-05-12T07:32:44.956Z,36.65
2023-05-12T07:33:44.914Z,37.02
2023-05-12T07:34:45.031Z,37.97
2023-05-12T07:35:44.900Z,38.82
2023-05-12T07:36:44.903Z,40.11
2023-05-12T07:37:44.976Z,40.12
2023-05-12T07:38:45.005Z,40.85
2023-05-12T07:39:45.077Z,41.32
2023-05-12T07:40:45.109Z,41.66
2023-05-12T07:41:45.165Z,41.82
2023-05-12T07:42:45.222Z,42.22
2023-05-12T07:43:45.252Z,42.42
2023-05-12T07:44:45.238Z,42.45
2023-05-12T07:45:45.319Z,42.83
2023-05-12T07:46:45.295Z,42.91
2023-05-12T07:47:45.297Z,42.91
2023-05-12T07:48:45.241Z,42.98
2023-05-12T07:49:45.259Z,43.02
2023-05-12T07:50:45.450Z,43.12
2023-05-12T07:51:45.339Z,43.11
2023-05-12T07:52:45.421Z,43.25
2023-05-12T07:53:45.493Z,43.26
2023-05-12T07:54:45.560Z,43.39
2023-05-12T07:55:45.581Z,43.35
2023-05-12T07:56:45.630Z,43.29
2023-05-12T07:57:45.720Z,43.38
2023-05-12T07:58:47.424Z,43.35
2023-05-12T07:59:45.785Z,43.20
2023-05-12T08:00:45.835Z,43.37
2023-05-12T08:01:46.034Z,43.27
2023-05-12T08:02:45.996Z,43.49
2023-05-12T08:03:46.091Z,43.60
2023-05-12T08:04:46.000Z,43.14
2023-05-12T08:05:46.011Z,43.30
2023-05-12T08:06:46.013Z,43.29
2023-05-12T08:07:46.037Z,43.14
2023-05-12T08:08:46.053Z,43.34
2023-05-12T08:09:46.078Z,43.30
2023-05-12T08:10:46.066Z,42.65
2023-05-12T08:11:48.123Z,42.98
2023-05-12T08:12:46.085Z,43.18
2023-05-12T08:13:46.102Z,42.99
2023-05-12T08:14:46.075Z,42.70
2023-05-12T08:15:46.054Z,42.54
2023-05-12T08:16:46.101Z,42.45
2023-05-12T08:17:46.091Z,42.46
2023-05-12T08:18:46.135Z,42.10
2023-05-12T08:19:46.044Z,42.52
2023-05-12T08:20:46.050Z,42.56
2023-05-12T08:21:46.005Z,42.51
2023-05-12T08:22:46.028Z,42.34
2023-05-12T08:23:46.006Z,42.72
2023-05-12T08:24:46.023Z,42.82
2023-05-12T08:25:45.985Z,43.23
2023-05-12T08:26:46.901Z,43.12
2023-05-12T08:27:45.996Z,43.16
2023-05-12T08:28:45.985Z,43.26
2023-05-12T08:29:45.992Z,43.35
2023-05-12T08:30:45.973Z,42.22
2023-05-12T08:31:45.942Z,41.36
2023-05-12T08:32:45.966Z,40.69
2023-05-12T08:33:47.197Z,40.16
2023-05-12T08:34:45.918Z,41.30
2023-05-12T08:35:45.928Z,41.43
2023-05-12T08:36:45.913Z,41.90
2023-05-12T08:37:45.949Z,41.77
2023-05-12T08:38:45.949Z,42.00
2023-05-12T08:39:45.885Z,41.85
2023-05-12T08:40:45.880Z,42.10
2023-05-12T08:41:45.880Z,41.85
2023-05-12T08:42:45.871Z,42.38
2023-05-12T08:43:45.884Z,42.45
2023-05-12T08:44:45.860Z,42.56
2023-05-12T08:45:45.879Z,42.66
2023-05-12T08:46:46.051Z,42.77
2023-05-12T08:47:45.842Z,42.86
2023-05-12T08:48:45.932Z,42.93
2023-05-12T08:49:45.805Z,42.93
2023-05-12T08:50:45.803Z,42.77
2023-05-12T08:51:54.458Z,42.40
2023-05-12T08:52:46.821Z,41.75
2023-05-12T08:53:45.923Z,40.40
2023-05-12T08:54:55.438Z,40.31
2023-05-12T08:56:01.102Z,39.62
2023-05-12T08:57:45.845Z,40.49
2023-05-12T08:58:45.751Z,40.39
2023-05-12T08:59:45.753Z,40.72
2023-05-12T09:00:45.759Z,40.87
2023-05-12T09:01:45.754Z,40.86
2023-05-12T09:02:54.061Z,40.85
2023-05-12T09:03:46.719Z,40.89
2023-05-12T09:04:45.734Z,41.00
2023-05-12T09:05:45.694Z,40.87
2023-05-12T09:06:45.701Z,40.94
2023-05-12T09:07:45.717Z,40.95
2023-05-12T09:08:45.718Z,40.93
2023-05-12T09:09:45.666Z,41.01
2023-05-12T09:10:45.721Z,41.10
2023-05-12T09:11:45.663Z,40.99
2023-05-12T09:12:45.783Z,41.10
2023-05-12T09:13:45.770Z,41.16
2023-05-12T09:14:45.813Z,41.28
2023-05-12T09:15:45.857Z,40.60
2023-05-12T09:16:45.995Z,37.60
2023-05-12T09:17:45.966Z,36.82
2023-05-12T09:18:46.011Z,37.26
2023-05-12T09:19:45.985Z,36.45
2023-05-12T09:20:46.076Z,36.18
2023-05-12T09:21:46.030Z,36.59
2023-05-12T09:22:46.088Z,36.54
2023-05-12T09:23:46.135Z,36.44
2023-05-12T09:24:46.150Z,36.70
2023-05-12T09:25:46.188Z,36.85
2023-05-12T09:26:46.278Z,36.77
2023-05-12T09:27:46.251Z,36.92
2023-05-12T09:28:46.269Z,37.49
2023-05-12T09:29:57.977Z,37.79
2023-05-12T09:30:47.280Z,38.02
2023-05-12T09:31:46.324Z,38.10
2023-05-12T09:32:46.315Z,37.87
2023-05-12T09:33:46.236Z,37.98
2023-05-12T09:34:46.229Z,37.95
2023-05-12T09:35:46.280Z,37.86
2023-05-12T09:36:46.229Z,37.89
2023-05-12T09:37:46.204Z,37.98
2023-05-12T09:38:46.225Z,37.88
2023-05-12T09:39:46.194Z,38.00
2023-05-12T09:40:46.258Z,38.04
2023-05-12T09:41:46.258Z,38.02
2023-05-12T09:42:46.386Z,38.03
2023-05-12T09:43:46.374Z,37.99
2023-05-12T09:44:46.392Z,38.03
2023-05-12T09:45:46.515Z,38.04
2023-05-12T09:46:46.498Z,38.04
2023-05-12T09:47:46.584Z,38.01
2023-05-12T09:48:46.594Z,38.11
2023-05-12T09:49:46.631Z,38.10
2023-05-12T09:50:47.810Z,38.11
2023-05-12T09:51:46.727Z,38.14
2023-05-12T09:52:46.767Z,38.20
2023-05-12T09:53:46.823Z,38.21
2023-05-12T09:54:46.874Z,38.20
2023-05-12T09:55:46.936Z,38.22
2023-05-12T09:56:46.983Z,38.20
2023-05-12T09:57:47.034Z,38.24
2023-05-12T09:58:47.118Z,38.25
2023-05-12T09:59:47.138Z,38.27
2023-05-12T10:01:48.180Z,38.26
2023-05-12T10:02:47.213Z,38.25
2023-05-12T10:03:47.215Z,38.19
2023-05-12T10:04:47.176Z,38.22
2023-05-12T10:05:47.147Z,38.26
2023-05-12T10:06:47.130Z,38.27
2023-05-12T10:07:47.130Z,38.36
2023-05-12T10:08:47.149Z,38.33
2023-05-12T10:09:47.126Z,38.36
2023-05-12T10:10:47.105Z,38.36
2023-05-12T10:11:47.109Z,38.36
2023-05-12T10:12:47.146Z,38.36
2023-05-12T10:13:47.241Z,38.39
2023-05-12T10:14:47.425Z,38.41
2023-05-12T10:15:47.294Z,38.43
2023-05-12T10:16:47.377Z,38.40
2023-05-12T10:17:47.445Z,38.36
2023-05-12T10:18:47.444Z,38.40
2023-05-12T10:19:47.504Z,38.40
2023-05-12T10:20:47.530Z,38.39
2023-05-12T10:21:47.584Z,38.43
2023-05-12T10:22:47.649Z,38.43
2023-05-12T10:23:47.695Z,38.42
2023-05-12T10:24:47.753Z,38.47
2023-05-12T10:25:47.803Z,38.48
2023-05-12T10:26:47.863Z,38.45
2023-05-12T10:27:47.922Z,38.67
2023-05-12T10:28:47.970Z,39.02
2023-05-12T10:29:48.824Z,39.34
2023-05-12T10:30:48.077Z,39.59
2023-05-12T10:31:48.238Z,39.59
2023-05-12T10:32:48.197Z,39.50
2023-05-12T10:33:48.196Z,39.62
2023-05-12T10:34:48.236Z,39.74
2023-05-12T10:35:49.652Z,39.88
2023-05-12T10:36:48.300Z,39.72
2023-05-12T10:37:48.303Z,39.29
2023-05-12T10:38:48.337Z,39.38
2023-05-12T10:39:48.390Z,39.58
2023-05-12T10:40:48.416Z,39.87
2023-05-12T10:41:48.394Z,39.83
2023-05-12T10:42:48.411Z,39.93
2023-05-12T10:43:48.411Z,39.98
2023-05-12T10:44:48.420Z,40.01
2023-05-12T10:45:48.414Z,39.59
2023-05-12T10:46:48.489Z,39.69
2023-05-12T10:47:48.457Z,39.95
2023-05-12T10:48:48.424Z,40.08
2023-05-12T10:49:48.429Z,40.21
2023-05-12T10:50:48.425Z,40.29
2023-05-12T10:51:48.441Z,40.34
2023-05-12T10:52:48.433Z,40.23
2023-05-12T10:53:52.611Z,40.29
2023-05-12T10:54:49.405Z,40.35
2023-05-12T10:55:48.675Z,40.40
2023-05-12T10:56:48.965Z,40.36
2023-05-12T10:57:48.828Z,40.42
2023-05-12T10:58:48.615Z,40.46
2023-05-12T10:59:48.840Z,40.55
2023-05-12T11:00:48.792Z,40.63
2023-05-12T11:03:48.760Z,40.43
2023-05-12T11:04:48.524Z,40.01
2023-05-12T11:05:49.013Z,40.30
2023-05-12T11:06:48.796Z,40.46
2023-05-12T11:07:48.889Z,40.42
2023-05-12T11:08:48.709Z,40.50
2023-05-12T11:09:57.014Z,40.39
2023-05-12T11:10:49.622Z,40.46
2023-05-12T11:11:48.661Z,40.46
2023-05-12T11:12:48.562Z,40.52
2023-05-12T11:13:48.556Z,40.47
2023-05-12T11:14:48.560Z,40.55
2023-05-12T11:15:48.632Z,40.57
2023-05-12T11:16:48.573Z,40.62
2023-05-12T11:17:48.561Z,40.10
2023-05-12T11:18:48.642Z,40.24
2023-05-12T11:19:48.641Z,40.28
2023-05-12T11:20:48.694Z,40.19
2023-05-12T11:21:48.756Z,40.29
2023-05-12T11:22:48.830Z,40.32
2023-05-12T11:23:48.885Z,40.31
2023-05-12T11:24:48.968Z,40.32
2023-05-12T11:25:49.082Z,40.41
2023-05-12T11:26:48.996Z,40.45
2023-05-12T11:27:49.967Z,40.50
2023-05-12T11:28:49.043Z,40.56
2023-05-12T11:29:49.035Z,40.55
2023-05-12T11:30:49.040Z,40.60
2023-05-12T11:31:49.043Z,40.64
2023-05-12T11:32:49.072Z,40.64
2023-05-12T11:33:55.928Z,40.67
2023-05-12T11:34:51.027Z,40.71
2023-05-12T11:35:48.996Z,40.77
2023-05-12T11:36:49.003Z,40.77
2023-05-12T11:37:48.999Z,40.81
2023-05-12T11:38:48.980Z,40.81
2023-05-12T11:39:48.992Z,40.85
2023-05-12T11:40:48.980Z,40.89
2023-05-12T11:41:50.236Z,40.89
2023-05-12T11:42:49.129Z,40.92
2023-05-12T11:43:48.958Z,40.94
2023-05-12T11:44:49.003Z,40.92
2023-05-12T11:45:48.998Z,40.93
2023-05-12T11:46:48.933Z,40.96
2023-05-12T11:47:48.942Z,40.97
2023-05-12T11:48:48.920Z,40.99
2023-05-12T11:49:48.905Z,41.02
2023-05-12T11:50:48.918Z,41.00
2023-05-12T11:51:48.897Z,41.00
2023-05-12T11:52:48.906Z,41.04
2023-05-12T11:53:48.889Z,41.02
2023-05-12T11:54:48.904Z,41.07
2023-05-12T11:55:48.878Z,41.08
2023-05-12T11:56:48.868Z,41.09
2023-05-12T11:57:48.868Z,41.08
2023-05-12T11:58:48.867Z,41.10
2023-05-12T11:59:48.861Z,41.09
2023-05-12T12:00:48.855Z,41.11
2023-05-12T12:01:48.837Z,41.15
2023-05-12T12:02:48.872Z,41.13
2023-05-12T12:03:48.980Z,41.14
2023-05-12T12:04:48.829Z,41.08
2023-05-12T12:05:48.819Z,41.13
2023-05-12T12:06:48.818Z,41.11
2023-05-12T12:07:48.791Z,41.17
2023-05-12T12:08:48.807Z,41.19
2023-05-12T12:09:48.794Z,41.18
2023-05-12T12:10:48.795Z,41.19
2023-05-12T12:11:48.768Z,41.20
2023-05-12T12:12:48.786Z,41.21
2023-05-12T12:13:48.757Z,41.25
2023-05-12T12:14:49.169Z,41.24
2023-05-12T12:15:48.766Z,41.21
2023-05-12T12:16:48.742Z,41.24
2023-05-12T12:17:48.780Z,41.23
2023-05-12T12:18:48.802Z,41.23
2023-05-12T12:19:48.725Z,41.20
2023-05-12T12:20:48.705Z,41.23
2023-05-12T12:21:48.705Z,41.21
2023-05-12T12:22:48.721Z,41.22
2023-05-12T12:23:51.422Z,41.22
2023-05-12T12:24:48.692Z,41.28
2023-05-12T12:25:48.735Z,41.25
2023-05-12T12:26:48.670Z,41.32
2023-05-12T12:27:48.674Z,41.30
2023-05-12T12:28:48.652Z,41.29
2023-05-12T12:29:48.635Z,41.29
2023-05-12T12:30:48.645Z,41.27
2023-05-12T12:31:48.632Z,41.28
2023-05-12T12:32:48.678Z,41.25
2023-05-12T12:33:48.605Z,41.29
2023-05-12T12:34:48.647Z,41.31
2023-05-12T12:35:48.617Z,41.28
2023-05-12T12:36:48.588Z,41.28
2023-05-12T12:37:48.572Z,41.30
2023-05-12T12:38:48.579Z,41.30
2023-05-12T12:39:48.575Z,41.27
2023-05-12T12:40:48.562Z,41.31
2023-05-12T12:41:48.549Z,41.30
2023-05-12T12:42:48.559Z,41.35
2023-05-12T12:43:48.534Z,41.36
2023-05-12T12:44:48.540Z,41.39
2023-05-12T12:45:48.525Z,41.39
2023-05-12T12:46:48.541Z,41.41
2023-05-12T12:47:48.527Z,41.40
2023-05-12T12:48:48.501Z,41.43
2023-05-12T12:49:48.510Z,41.42
2023-05-12T12:50:48.483Z,41.41
2023-05-12T12:51:48.487Z,41.41
2023-05-12T12:52:48.478Z,41.38
2023-05-12T12:53:48.476Z,41.42
2023-05-12T12:54:48.458Z,41.40
2023-05-12T12:55:48.453Z,41.41
2023-05-12T12:56:48.449Z,41.40
2023-05-12T12:57:48.438Z,41.39